sensor_id;sensor_type;location;lat;lon;timestamp;temperature;humidity
18950;DHT22;9608;49.288;8.130;2023-12-07T00:01:22;4.60;99.90
18950;DHT22;9608;49.288;8.130;2023-12-07T00:03:49;4.50;99.90
18950;DHT22;9608;49.288;8.130;2023-12-07T00:06:15;4.40;99.90
18950;DHT22;9608;49.288;8.130;2023-12-07T00:08:42;4.40;99.90
18950;DHT22;9608;49.288;8.130;2023-12-07T00:11:09;4.40;99.90
18950;DHT22;9608;49.288;8.130;2023-12-07T00:13:37;4.30;99.90
18950;DHT22;9608;49.288;8.130;2023-12-07T00:16:04;4.30;99.90
18950;DHT22;9608;49.288;8.130;2023-12-07T00:18:31;4.20;99.90
18950;DHT22;9608;49.288;8.130;2023-12-07T00:20:57;4.20;99.90
18950;DHT22;9608;49.288;8.130;2023-12-07T00:23:24;4.10;99.90
18950;DHT22;9608;49.288;8.130;2023-12-07T00:25:51;4.10;99.90
18950;DHT22;9608;49.288;8.130;2023-12-07T00:28:17;4.10;99.90
18950;DHT22;9608;49.288;8.130;2023-12-07T00:30:45;4.00;99.90
18950;DHT22;9608;49.288;8.130;2023-12-07T00:33:12;4.00;99.90
18950;DHT22;9608;49.288;8.130;2023-12-07T00:35:39;3.90;99.90
18950;DHT22;9608;49.288;8.130;2023-12-07T00:38:05;3.90;99.90
18950;DHT22;9608;49.288;8.130;2023-12-07T00:40:33;3.90;99.90
18950;DHT22;9608;49.288;8.130;2023-12-07T00:43:02;3.90;99.90
18950;DHT22;9608;49.288;8.130;2023-12-07T00:45:29;3.80;99.90
18950;DHT22;9608;49.288;8.130;2023-12-07T00:47:57;3.80;99.90
18950;DHT22;9608;49.288;8.130;2023-12-07T00:50:24;3.80;99.90
18950;DHT22;9608;49.288;8.130;2023-12-07T00:52:50;3.80;99.90
18950;DHT22;9608;49.288;8.130;2023-12-07T00:55:17;3.80;99.90
18950;DHT22;9608;49.288;8.130;2023-12-07T00:57:44;3.80;99.90
18950;DHT22;9608;49.288;8.130;2023-12-07T01:00:11;3.80;99.90
18950;DHT22;9608;49.288;8.130;2023-12-07T01:02:38;3.80;99.90
18950;DHT22;9608;49.288;8.130;2023-12-07T01:05:07;3.90;99.90
18950;DHT22;9608;49.288;8.130;2023-12-07T01:07:34;3.90;99.90
18950;DHT22;9608;49.288;8.130;2023-12-07T01:10:01;4.00;99.90
18950;DHT22;9608;49.288;8.130;2023-12-07T01:12:27;4.10;99.90
18950;DHT22;9608;49.288;8.130;2023-12-07T01:14:54;4.20;99.90
18950;DHT22;9608;49.288;8.130;2023-12-07T01:17:21;4.20;99.90
18950;DHT22;9608;49.288;8.130;2023-12-07T01:19:47;4.20;99.90
18950;DHT22;9608;49.288;8.130;2023-12-07T01:22:15;4.20;99.90
18950;DHT22;9608;49.288;8.130;2023-12-07T01:24:42;4.20;99.90
18950;DHT22;9608;49.288;8.130;2023-12-07T01:27:09;4.20;99.90
18950;DHT22;9608;49.288;8.130;2023-12-07T01:29:36;4.20;99.90
18950;DHT22;9608;49.288;8.130;2023-12-07T01:32:03;4.20;99.90
18950;DHT22;9608;49.288;8.130;2023-12-07T01:34:31;4.20;99.90
18950;DHT22;9608;49.288;8.130;2023-12-07T01:36:58;4.20;99.90
18950;DHT22;9608;49.288;8.130;2023-12-07T01:39:26;4.10;99.90
18950;DHT22;9608;49.288;8.130;2023-12-07T01:41:53;4.00;99.90
18950;DHT22;9608;49.288;8.130;2023-12-07T01:44:19;4.00;99.90
18950;DHT22;9608;49.288;8.130;2023-12-07T01:46:46;4.00;99.90
18950;DHT22;9608;49.288;8.130;2023-12-07T01:49:13;4.00;99.90
18950;DHT22;9608;49.288;8.130;2023-12-07T01:51:40;4.00;99.90
18950;DHT22;9608;49.288;8.130;2023-12-07T01:54:06;4.10;99.90
18950;DHT22;9608;49.288;8.130;2023-12-07T01:56:36;4.10;99.90
18950;DHT22;9608;49.288;8.130;2023-12-07T01:59:03;4.10;99.90
18950;DHT22;9608;49.288;8.130;2023-12-07T02:01:30;4.10;99.90
18950;DHT22;9608;49.288;8.130;2023-12-07T02:03:56;4.00;99.90
18950;DHT22;9608;49.288;8.130;2023-12-07T02:06:23;4.00;99.90
18950;DHT22;9608;49.288;8.130;2023-12-07T02:08:51;4.00;99.90
18950;DHT22;9608;49.288;8.130;2023-12-07T02:11:18;4.00;99.90
18950;DHT22;9608;49.288;8.130;2023-12-07T02:13:46;4.00;99.90
18950;DHT22;9608;49.288;8.130;2023-12-07T02:19:03;4.10;99.90
18950;DHT22;9608;49.288;8.130;2023-12-07T02:21:39;4.10;99.90
18950;DHT22;9608;49.288;8.130;2023-12-07T02:24:07;4.00;99.90
18950;DHT22;9608;49.288;8.130;2023-12-07T02:26:35;3.80;99.90
18950;DHT22;9608;49.288;8.130;2023-12-07T02:29:05;3.80;99.90
18950;DHT22;9608;49.288;8.130;2023-12-07T02:31:31;3.70;99.90
18950;DHT22;9608;49.288;8.130;2023-12-07T02:33:59;3.70;99.90
18950;DHT22;9608;49.288;8.130;2023-12-07T02:36:28;3.70;99.90
18950;DHT22;9608;49.288;8.130;2023-12-07T02:38:58;3.50;99.90
18950;DHT22;9608;49.288;8.130;2023-12-07T02:41:27;3.40;99.90
18950;DHT22;9608;49.288;8.130;2023-12-07T02:43:55;3.30;99.90
18950;DHT22;9608;49.288;8.130;2023-12-07T02:46:23;3.20;99.90
18950;DHT22;9608;49.288;8.130;2023-12-07T02:48:49;3.20;99.90
18950;DHT22;9608;49.288;8.130;2023-12-07T02:51:16;3.20;99.90
18950;DHT22;9608;49.288;8.130;2023-12-07T02:53:43;3.10;99.90
18950;DHT22;9608;49.288;8.130;2023-12-07T02:56:09;3.00;99.90
18950;DHT22;9608;49.288;8.130;2023-12-07T02:58:36;2.80;99.90
18950;DHT22;9608;49.288;8.130;2023-12-07T03:01:04;2.70;99.90
18950;DHT22;9608;49.288;8.130;2023-12-07T03:03:31;2.50;99.90
18950;DHT22;9608;49.288;8.130;2023-12-07T03:05:58;2.40;99.90
18950;DHT22;9608;49.288;8.130;2023-12-07T03:08:25;2.20;99.90
18950;DHT22;9608;49.288;8.130;2023-12-07T03:10:53;2.10;99.90
18950;DHT22;9608;49.288;8.130;2023-12-07T03:13:20;2.10;99.90
18950;DHT22;9608;49.288;8.130;2023-12-07T03:15:46;2.00;99.90
18950;DHT22;9608;49.288;8.130;2023-12-07T03:18:14;2.00;99.90
18950;DHT22;9608;49.288;8.130;2023-12-07T03:20:41;2.00;99.90
18950;DHT22;9608;49.288;8.130;2023-12-07T03:23:08;2.00;99.90
18950;DHT22;9608;49.288;8.130;2023-12-07T03:25:34;1.90;99.90
18950;DHT22;9608;49.288;8.130;2023-12-07T03:28:01;1.90;99.90
18950;DHT22;9608;49.288;8.130;2023-12-07T03:30:28;1.90;99.90
18950;DHT22;9608;49.288;8.130;2023-12-07T03:32:55;1.90;99.90
18950;DHT22;9608;49.288;8.130;2023-12-07T03:35:23;1.90;99.90
18950;DHT22;9608;49.288;8.130;2023-12-07T03:37:49;1.90;99.90
18950;DHT22;9608;49.288;8.130;2023-12-07T03:40:16;1.90;99.90
18950;DHT22;9608;49.288;8.130;2023-12-07T03:42:43;1.90;99.90
18950;DHT22;9608;49.288;8.130;2023-12-07T03:45:10;1.80;99.90
18950;DHT22;9608;49.288;8.130;2023-12-07T03:47:37;1.80;99.90
18950;DHT22;9608;49.288;8.130;2023-12-07T03:50:04;1.80;99.90
18950;DHT22;9608;49.288;8.130;2023-12-07T03:52:32;1.80;99.90
18950;DHT22;9608;49.288;8.130;2023-12-07T03:54:59;1.70;99.90
18950;DHT22;9608;49.288;8.130;2023-12-07T03:57:26;1.70;99.90
18950;DHT22;9608;49.288;8.130;2023-12-07T03:59:53;1.70;99.90
18950;DHT22;9608;49.288;8.130;2023-12-07T04:02:20;1.60;99.90
18950;DHT22;9608;49.288;8.130;2023-12-07T04:04:47;1.70;99.90
18950;DHT22;9608;49.288;8.130;2023-12-07T04:07:13;1.70;99.90
18950;DHT22;9608;49.288;8.130;2023-12-07T04:09:41;1.70;99.90
18950;DHT22;9608;49.288;8.130;2023-12-07T04:12:08;1.60;99.90
18950;DHT22;9608;49.288;8.130;2023-12-07T04:14:35;1.60;99.90
18950;DHT22;9608;49.288;8.130;2023-12-07T04:17:02;1.70;99.90
18950;DHT22;9608;49.288;8.130;2023-12-07T04:19:28;1.70;99.90
18950;DHT22;9608;49.288;8.130;2023-12-07T04:21:55;1.70;99.90
18950;DHT22;9608;49.288;8.130;2023-12-07T04:24:22;1.70;99.90
18950;DHT22;9608;49.288;8.130;2023-12-07T04:26:50;1.50;99.90
18950;DHT22;9608;49.288;8.130;2023-12-07T04:29:16;1.50;99.90
18950;DHT22;9608;49.288;8.130;2023-12-07T04:31:43;1.40;99.90
18950;DHT22;9608;49.288;8.130;2023-12-07T04:34:10;1.40;99.90
18950;DHT22;9608;49.288;8.130;2023-12-07T04:36:36;1.40;99.90
18950;DHT22;9608;49.288;8.130;2023-12-07T04:39:03;1.40;99.90
18950;DHT22;9608;49.288;8.130;2023-12-07T04:41:30;1.40;99.90
18950;DHT22;9608;49.288;8.130;2023-12-07T04:43:58;1.40;99.90
18950;DHT22;9608;49.288;8.130;2023-12-07T04:46:25;1.40;99.90
18950;DHT22;9608;49.288;8.130;2023-12-07T04:48:54;1.40;99.90
18950;DHT22;9608;49.288;8.130;2023-12-07T04:51:20;1.40;99.90
18950;DHT22;9608;49.288;8.130;2023-12-07T04:53:47;1.40;99.90
18950;DHT22;9608;49.288;8.130;2023-12-07T04:56:14;1.20;99.90
18950;DHT22;9608;49.288;8.130;2023-12-07T04:58:40;1.10;99.90
18950;DHT22;9608;49.288;8.130;2023-12-07T05:01:08;1.10;99.90
18950;DHT22;9608;49.288;8.130;2023-12-07T05:03:35;1.10;99.90
18950;DHT22;9608;49.288;8.130;2023-12-07T05:06:02;1.00;99.90
18950;DHT22;9608;49.288;8.130;2023-12-07T05:08:29;1.00;99.90
18950;DHT22;9608;49.288;8.130;2023-12-07T05:10:57;1.00;99.90
18950;DHT22;9608;49.288;8.130;2023-12-07T05:13:23;1.00;99.90
18950;DHT22;9608;49.288;8.130;2023-12-07T05:15:51;1.10;99.90
18950;DHT22;9608;49.288;8.130;2023-12-07T05:18:19;1.10;99.90
18950;DHT22;9608;49.288;8.130;2023-12-07T05:20:45;1.20;99.90
18950;DHT22;9608;49.288;8.130;2023-12-07T05:23:12;1.20;99.90
18950;DHT22;9608;49.288;8.130;2023-12-07T05:25:39;1.30;99.90
18950;DHT22;9608;49.288;8.130;2023-12-07T05:28:05;1.30;99.90
18950;DHT22;9608;49.288;8.130;2023-12-07T05:30:32;1.30;99.90
18950;DHT22;9608;49.288;8.130;2023-12-07T05:32:59;1.20;99.90
18950;DHT22;9608;49.288;8.130;2023-12-07T05:35:27;1.20;99.90
18950;DHT22;9608;49.288;8.130;2023-12-07T05:37:54;1.20;99.90
18950;DHT22;9608;49.288;8.130;2023-12-07T05:40:20;1.20;99.90
18950;DHT22;9608;49.288;8.130;2023-12-07T05:42:49;1.10;99.90
18950;DHT22;9608;49.288;8.130;2023-12-07T05:45:16;1.10;99.90
18950;DHT22;9608;49.288;8.130;2023-12-07T05:47:43;1.10;99.90
18950;DHT22;9608;49.288;8.130;2023-12-07T05:50:09;1.00;99.90
18950;DHT22;9608;49.288;8.130;2023-12-07T05:52:37;1.00;99.90
18950;DHT22;9608;49.288;8.130;2023-12-07T05:55:05;1.00;99.90
18950;DHT22;9608;49.288;8.130;2023-12-07T05:57:32;1.00;99.90
18950;DHT22;9608;49.288;8.130;2023-12-07T05:59:59;1.00;99.90
18950;DHT22;9608;49.288;8.130;2023-12-07T06:02:25;0.90;99.90
18950;DHT22;9608;49.288;8.130;2023-12-07T06:04:52;0.80;99.90
18950;DHT22;9608;49.288;8.130;2023-12-07T06:07:19;0.70;99.90
18950;DHT22;9608;49.288;8.130;2023-12-07T06:09:48;0.70;99.90
18950;DHT22;9608;49.288;8.130;2023-12-07T06:12:15;0.80;99.90
18950;DHT22;9608;49.288;8.130;2023-12-07T06:14:41;0.70;99.90
18950;DHT22;9608;49.288;8.130;2023-12-07T06:17:08;0.80;99.90
18950;DHT22;9608;49.288;8.130;2023-12-07T06:19:35;0.80;99.90
18950;DHT22;9608;49.288;8.130;2023-12-07T06:22:01;0.80;99.90
18950;DHT22;9608;49.288;8.130;2023-12-07T06:24:28;0.80;99.90
18950;DHT22;9608;49.288;8.130;2023-12-07T06:26:56;0.80;99.90
18950;DHT22;9608;49.288;8.130;2023-12-07T06:29:23;0.80;99.90
18950;DHT22;9608;49.288;8.130;2023-12-07T06:31:49;0.70;99.90
18950;DHT22;9608;49.288;8.130;2023-12-07T06:34:16;0.70;99.90
18950;DHT22;9608;49.288;8.130;2023-12-07T06:36:43;0.70;99.90
18950;DHT22;9608;49.288;8.130;2023-12-07T06:39:10;0.80;99.90
18950;DHT22;9608;49.288;8.130;2023-12-07T06:41:36;0.80;99.90
18950;DHT22;9608;49.288;8.130;2023-12-07T06:44:05;0.90;99.90
18950;DHT22;9608;49.288;8.130;2023-12-07T06:46:32;0.90;99.90
18950;DHT22;9608;49.288;8.130;2023-12-07T06:48:59;1.00;99.90
18950;DHT22;9608;49.288;8.130;2023-12-07T06:51:26;0.70;99.90
18950;DHT22;9608;49.288;8.130;2023-12-07T06:53:53;0.40;99.90
18950;DHT22;9608;49.288;8.130;2023-12-07T06:56:20;0.30;99.90
18950;DHT22;9608;49.288;8.130;2023-12-07T06:58:46;0.20;99.90
18950;DHT22;9608;49.288;8.130;2023-12-07T07:01:15;0.10;99.90
18950;DHT22;9608;49.288;8.130;2023-12-07T07:03:41;0.00;99.90
18950;DHT22;9608;49.288;8.130;2023-12-07T07:06:08;-0.10;99.90
18950;DHT22;9608;49.288;8.130;2023-12-07T07:08:37;-0.10;99.90
18950;DHT22;9608;49.288;8.130;2023-12-07T07:11:11;-0.20;99.90
18950;DHT22;9608;49.288;8.130;2023-12-07T07:13:39;-0.10;99.90
18950;DHT22;9608;49.288;8.130;2023-12-07T07:16:07;-0.10;99.90
18950;DHT22;9608;49.288;8.130;2023-12-07T07:18:40;0.00;99.90
18950;DHT22;9608;49.288;8.130;2023-12-07T07:21:08;0.00;99.90
18950;DHT22;9608;49.288;8.130;2023-12-07T07:23:35;0.00;99.90
18950;DHT22;9608;49.288;8.130;2023-12-07T07:26:04;0.00;99.90
18950;DHT22;9608;49.288;8.130;2023-12-07T07:28:31;0.10;99.90
18950;DHT22;9608;49.288;8.130;2023-12-07T07:30:58;0.20;99.90
18950;DHT22;9608;49.288;8.130;2023-12-07T07:33:26;0.10;99.90
18950;DHT22;9608;49.288;8.130;2023-12-07T07:35:55;0.10;99.90
18950;DHT22;9608;49.288;8.130;2023-12-07T07:38:23;0.10;99.90
18950;DHT22;9608;49.288;8.130;2023-12-07T07:40:52;0.20;99.90
18950;DHT22;9608;49.288;8.130;2023-12-07T07:43:20;0.30;99.90
18950;DHT22;9608;49.288;8.130;2023-12-07T07:45:48;0.40;99.90
18950;DHT22;9608;49.288;8.130;2023-12-07T07:48:16;0.40;99.90
18950;DHT22;9608;49.288;8.130;2023-12-07T08:01:24;1.00;99.90
18950;DHT22;9608;49.288;8.130;2023-12-07T08:07:31;1.20;99.90
18950;DHT22;9608;49.288;8.130;2023-12-07T08:15:29;1.30;99.90
18950;DHT22;9608;49.288;8.130;2023-12-07T08:18:11;1.40;99.90
18950;DHT22;9608;49.288;8.130;2023-12-07T08:21:13;1.50;99.90
18950;DHT22;9608;49.288;8.130;2023-12-07T08:24:20;1.70;99.90
18950;DHT22;9608;49.288;8.130;2023-12-07T08:26:52;1.80;99.90
18950;DHT22;9608;49.288;8.130;2023-12-07T08:36:34;2.00;99.90
18950;DHT22;9608;49.288;8.130;2023-12-07T08:39:28;2.20;99.90
18950;DHT22;9608;49.288;8.130;2023-12-07T08:41:59;2.30;99.90
18950;DHT22;9608;49.288;8.130;2023-12-07T08:44:26;2.40;99.90
18950;DHT22;9608;49.288;8.130;2023-12-07T08:46:54;2.60;99.90
18950;DHT22;9608;49.288;8.130;2023-12-07T08:49:21;2.80;99.90
18950;DHT22;9608;49.288;8.130;2023-12-07T08:51:52;2.90;99.90
18950;DHT22;9608;49.288;8.130;2023-12-07T08:54:19;3.10;99.90
18950;DHT22;9608;49.288;8.130;2023-12-07T08:56:47;3.10;99.90
18950;DHT22;9608;49.288;8.130;2023-12-07T08:59:15;3.10;99.90
18950;DHT22;9608;49.288;8.130;2023-12-07T09:01:41;3.10;99.90
18950;DHT22;9608;49.288;8.130;2023-12-07T09:04:10;3.10;99.90
18950;DHT22;9608;49.288;8.130;2023-12-07T09:06:38;3.10;99.90
18950;DHT22;9608;49.288;8.130;2023-12-07T09:09:10;3.10;99.90
18950;DHT22;9608;49.288;8.130;2023-12-07T09:11:39;2.90;99.90
18950;DHT22;9608;49.288;8.130;2023-12-07T09:14:06;2.90;99.90
18950;DHT22;9608;49.288;8.130;2023-12-07T09:16:35;2.90;99.90
18950;DHT22;9608;49.288;8.130;2023-12-07T09:19:03;2.80;99.90
18950;DHT22;9608;49.288;8.130;2023-12-07T09:21:33;2.70;99.90
18950;DHT22;9608;49.288;8.130;2023-12-07T09:24:11;2.60;99.90
18950;DHT22;9608;49.288;8.130;2023-12-07T09:26:40;2.70;99.90
18950;DHT22;9608;49.288;8.130;2023-12-07T09:29:11;2.70;99.90
18950;DHT22;9608;49.288;8.130;2023-12-07T09:31:59;2.70;99.90
18950;DHT22;9608;49.288;8.130;2023-12-07T09:34:41;2.80;99.90
18950;DHT22;9608;49.288;8.130;2023-12-07T09:37:15;2.80;99.90
18950;DHT22;9608;49.288;8.130;2023-12-07T09:39:51;2.80;99.90
18950;DHT22;9608;49.288;8.130;2023-12-07T09:42:42;2.70;99.90
18950;DHT22;9608;49.288;8.130;2023-12-07T09:45:36;2.90;99.90
18950;DHT22;9608;49.288;8.130;2023-12-07T09:48:13;3.00;99.90
18950;DHT22;9608;49.288;8.130;2023-12-07T09:51:07;3.10;99.90
18950;DHT22;9608;49.288;8.130;2023-12-07T09:53:55;3.20;99.90
18950;DHT22;9608;49.288;8.130;2023-12-07T10:03:41;3.20;99.90
18950;DHT22;9608;49.288;8.130;2023-12-07T10:06:23;2.90;99.90
18950;DHT22;9608;49.288;8.130;2023-12-07T10:09:12;2.60;99.90
18950;DHT22;9608;49.288;8.130;2023-12-07T10:11:43;2.70;99.90
18950;DHT22;9608;49.288;8.130;2023-12-07T10:14:15;2.70;99.90
18950;DHT22;9608;49.288;8.130;2023-12-07T10:16:53;3.00;99.90
18950;DHT22;9608;49.288;8.130;2023-12-07T10:24:53;3.10;99.90
18950;DHT22;9608;49.288;8.130;2023-12-07T10:27:23;3.00;99.90
18950;DHT22;9608;49.288;8.130;2023-12-07T10:29:54;3.10;99.90
18950;DHT22;9608;49.288;8.130;2023-12-07T10:32:22;3.40;99.90
18950;DHT22;9608;49.288;8.130;2023-12-07T10:34:50;3.70;99.90
18950;DHT22;9608;49.288;8.130;2023-12-07T10:37:18;3.80;99.90
18950;DHT22;9608;49.288;8.130;2023-12-07T10:39:45;3.90;99.90
18950;DHT22;9608;49.288;8.130;2023-12-07T10:42:16;3.80;99.90
18950;DHT22;9608;49.288;8.130;2023-12-07T10:44:50;3.90;99.90
18950;DHT22;9608;49.288;8.130;2023-12-07T10:47:18;3.90;99.90
18950;DHT22;9608;49.288;8.130;2023-12-07T10:49:53;3.90;99.90
18950;DHT22;9608;49.288;8.130;2023-12-07T10:52:28;3.90;99.90
18950;DHT22;9608;49.288;8.130;2023-12-07T10:55:16;3.70;99.90
18950;DHT22;9608;49.288;8.130;2023-12-07T10:58:02;3.60;99.90
18950;DHT22;9608;49.288;8.130;2023-12-07T11:00:54;3.70;99.90
18950;DHT22;9608;49.288;8.130;2023-12-07T11:03:40;4.10;99.90
18950;DHT22;9608;49.288;8.130;2023-12-07T11:06:09;4.10;99.90
18950;DHT22;9608;49.288;8.130;2023-12-07T11:08:41;4.30;99.90
18950;DHT22;9608;49.288;8.130;2023-12-07T11:11:42;4.40;99.90
18950;DHT22;9608;49.288;8.130;2023-12-07T11:35:37;3.00;99.90
18950;DHT22;9608;49.288;8.130;2023-12-07T11:39:17;3.20;99.90
18950;DHT22;9608;49.288;8.130;2023-12-07T11:42:38;2.70;99.90
18950;DHT22;9608;49.288;8.130;2023-12-07T11:45:40;2.50;99.90
18950;DHT22;9608;49.288;8.130;2023-12-07T11:48:12;2.20;99.90
18950;DHT22;9608;49.288;8.130;2023-12-07T12:10:41;2.20;99.90
18950;DHT22;9608;49.288;8.130;2023-12-07T12:13:10;2.00;99.90
18950;DHT22;9608;49.288;8.130;2023-12-07T12:15:39;1.90;99.90
18950;DHT22;9608;49.288;8.130;2023-12-07T12:18:09;2.00;99.90
18950;DHT22;9608;49.288;8.130;2023-12-07T12:20:38;2.20;99.90
18950;DHT22;9608;49.288;8.130;2023-12-07T12:23:05;2.20;99.90
18950;DHT22;9608;49.288;8.130;2023-12-07T12:25:33;2.30;99.90
18950;DHT22;9608;49.288;8.130;2023-12-07T12:28:04;2.50;99.90
18950;DHT22;9608;49.288;8.130;2023-12-07T12:30:32;2.40;99.90
18950;DHT22;9608;49.288;8.130;2023-12-07T12:33:00;2.50;99.90
18950;DHT22;9608;49.288;8.130;2023-12-07T12:35:27;2.20;99.90
18950;DHT22;9608;49.288;8.130;2023-12-07T12:37:54;2.10;99.90
18950;DHT22;9608;49.288;8.130;2023-12-07T12:40:23;2.10;99.90
18950;DHT22;9608;49.288;8.130;2023-12-07T12:42:51;2.10;99.90
18950;DHT22;9608;49.288;8.130;2023-12-07T12:45:20;2.30;99.90
18950;DHT22;9608;49.288;8.130;2023-12-07T12:47:48;2.50;99.90
18950;DHT22;9608;49.288;8.130;2023-12-07T12:50:33;2.60;99.90
18950;DHT22;9608;49.288;8.130;2023-12-07T12:53:02;2.60;99.90
18950;DHT22;9608;49.288;8.130;2023-12-07T12:55:31;2.70;99.90
18950;DHT22;9608;49.288;8.130;2023-12-07T12:57:58;2.80;99.90
18950;DHT22;9608;49.288;8.130;2023-12-07T13:00:28;2.90;99.90
18950;DHT22;9608;49.288;8.130;2023-12-07T13:02:55;3.00;99.90
18950;DHT22;9608;49.288;8.130;2023-12-07T13:05:22;3.10;99.90
18950;DHT22;9608;49.288;8.130;2023-12-07T13:07:51;3.10;99.90
18950;DHT22;9608;49.288;8.130;2023-12-07T13:10:21;3.20;99.90
18950;DHT22;9608;49.288;8.130;2023-12-07T13:12:48;3.30;99.90
18950;DHT22;9608;49.288;8.130;2023-12-07T13:15:15;3.30;99.90
18950;DHT22;9608;49.288;8.130;2023-12-07T13:17:44;3.30;99.90
18950;DHT22;9608;49.288;8.130;2023-12-07T13:20:11;3.30;99.90
18950;DHT22;9608;49.288;8.130;2023-12-07T13:22:39;3.20;99.90
18950;DHT22;9608;49.288;8.130;2023-12-07T13:25:07;3.20;99.90
18950;DHT22;9608;49.288;8.130;2023-12-07T13:27:34;3.10;99.90
18950;DHT22;9608;49.288;8.130;2023-12-07T13:30:01;3.10;99.90
18950;DHT22;9608;49.288;8.130;2023-12-07T13:32:31;3.30;99.90
18950;DHT22;9608;49.288;8.130;2023-12-07T13:35:00;3.40;99.90
18950;DHT22;9608;49.288;8.130;2023-12-07T13:37:27;3.50;99.90
18950;DHT22;9608;49.288;8.130;2023-12-07T13:39:54;3.60;99.90
18950;DHT22;9608;49.288;8.130;2023-12-07T13:42:23;3.80;99.90
18950;DHT22;9608;49.288;8.130;2023-12-07T13:44:52;3.80;99.90
18950;DHT22;9608;49.288;8.130;2023-12-07T13:47:19;3.80;99.90
18950;DHT22;9608;49.288;8.130;2023-12-07T13:49:48;3.80;99.90
18950;DHT22;9608;49.288;8.130;2023-12-07T13:52:18;3.70;99.90
18950;DHT22;9608;49.288;8.130;2023-12-07T13:54:44;3.70;99.90
18950;DHT22;9608;49.288;8.130;2023-12-07T13:57:11;3.70;99.90
18950;DHT22;9608;49.288;8.130;2023-12-07T13:59:38;3.70;99.90
18950;DHT22;9608;49.288;8.130;2023-12-07T14:02:06;3.50;99.90
18950;DHT22;9608;49.288;8.130;2023-12-07T14:04:33;3.40;99.90
18950;DHT22;9608;49.288;8.130;2023-12-07T14:07:08;3.40;99.90
18950;DHT22;9608;49.288;8.130;2023-12-07T14:09:37;3.30;99.90
18950;DHT22;9608;49.288;8.130;2023-12-07T14:12:04;3.20;99.90
18950;DHT22;9608;49.288;8.130;2023-12-07T14:14:31;3.20;99.90
18950;DHT22;9608;49.288;8.130;2023-12-07T14:16:58;3.00;99.90
18950;DHT22;9608;49.288;8.130;2023-12-07T14:19:25;2.90;99.90
18950;DHT22;9608;49.288;8.130;2023-12-07T14:21:53;3.00;99.90
18950;DHT22;9608;49.288;8.130;2023-12-07T14:24:20;3.00;99.90
18950;DHT22;9608;49.288;8.130;2023-12-07T14:26:48;2.90;99.90
18950;DHT22;9608;49.288;8.130;2023-12-07T14:29:15;2.80;99.90
18950;DHT22;9608;49.288;8.130;2023-12-07T14:31:43;2.90;99.90
18950;DHT22;9608;49.288;8.130;2023-12-07T14:34:10;2.80;99.90
18950;DHT22;9608;49.288;8.130;2023-12-07T14:36:39;2.60;99.90
18950;DHT22;9608;49.288;8.130;2023-12-07T14:39:07;2.50;99.90
18950;DHT22;9608;49.288;8.130;2023-12-07T14:41:34;2.30;99.90
18950;DHT22;9608;49.288;8.130;2023-12-07T14:44:02;2.40;99.90
18950;DHT22;9608;49.288;8.130;2023-12-07T14:46:30;2.30;99.90
18950;DHT22;9608;49.288;8.130;2023-12-07T14:48:57;2.30;99.90
18950;DHT22;9608;49.288;8.130;2023-12-07T14:51:24;2.30;99.90
18950;DHT22;9608;49.288;8.130;2023-12-07T14:53:51;2.50;99.90
18950;DHT22;9608;49.288;8.130;2023-12-07T14:56:17;2.40;99.90
18950;DHT22;9608;49.288;8.130;2023-12-07T14:58:44;2.40;99.90
18950;DHT22;9608;49.288;8.130;2023-12-07T15:01:12;2.40;99.90
18950;DHT22;9608;49.288;8.130;2023-12-07T15:03:40;2.40;99.90
18950;DHT22;9608;49.288;8.130;2023-12-07T15:06:07;2.40;99.90
18950;DHT22;9608;49.288;8.130;2023-12-07T15:08:34;2.30;99.90
18950;DHT22;9608;49.288;8.130;2023-12-07T15:11:00;2.20;99.90
18950;DHT22;9608;49.288;8.130;2023-12-07T15:13:27;2.10;99.90
18950;DHT22;9608;49.288;8.130;2023-12-07T15:15:54;2.10;99.90
18950;DHT22;9608;49.288;8.130;2023-12-07T15:18:22;2.20;99.90
18950;DHT22;9608;49.288;8.130;2023-12-07T15:20:48;2.30;99.90
18950;DHT22;9608;49.288;8.130;2023-12-07T15:23:15;2.20;99.90
18950;DHT22;9608;49.288;8.130;2023-12-07T15:25:42;2.20;99.90
18950;DHT22;9608;49.288;8.130;2023-12-07T15:28:09;2.40;99.90
18950;DHT22;9608;49.288;8.130;2023-12-07T15:30:36;2.80;99.90
18950;DHT22;9608;49.288;8.130;2023-12-07T15:33:03;3.00;99.90
18950;DHT22;9608;49.288;8.130;2023-12-07T15:35:31;3.10;99.90
18950;DHT22;9608;49.288;8.130;2023-12-07T15:37:58;3.10;99.90
18950;DHT22;9608;49.288;8.130;2023-12-07T15:40:25;3.20;99.90
18950;DHT22;9608;49.288;8.130;2023-12-07T15:42:52;3.20;99.90
18950;DHT22;9608;49.288;8.130;2023-12-07T15:45:19;3.10;99.90
18950;DHT22;9608;49.288;8.130;2023-12-07T15:47:46;3.20;99.90
18950;DHT22;9608;49.288;8.130;2023-12-07T15:50:12;3.30;99.90
18950;DHT22;9608;49.288;8.130;2023-12-07T15:52:40;3.40;99.90
18950;DHT22;9608;49.288;8.130;2023-12-07T15:55:08;3.40;99.90
18950;DHT22;9608;49.288;8.130;2023-12-07T15:57:35;3.40;99.90
18950;DHT22;9608;49.288;8.130;2023-12-07T16:00:03;3.50;99.90
18950;DHT22;9608;49.288;8.130;2023-12-07T16:02:31;3.50;99.90
18950;DHT22;9608;49.288;8.130;2023-12-07T16:04:58;3.50;99.90
18950;DHT22;9608;49.288;8.130;2023-12-07T16:07:25;3.60;99.90
18950;DHT22;9608;49.288;8.130;2023-12-07T16:09:53;3.60;99.90
18950;DHT22;9608;49.288;8.130;2023-12-07T16:12:19;3.60;99.90
18950;DHT22;9608;49.288;8.130;2023-12-07T16:14:46;3.80;99.90
18950;DHT22;9608;49.288;8.130;2023-12-07T16:17:13;3.80;99.90
18950;DHT22;9608;49.288;8.130;2023-12-07T16:19:40;3.90;99.90
18950;DHT22;9608;49.288;8.130;2023-12-07T16:22:07;3.90;99.90
18950;DHT22;9608;49.288;8.130;2023-12-07T16:24:34;3.90;99.90
18950;DHT22;9608;49.288;8.130;2023-12-07T16:27:02;3.90;99.90
18950;DHT22;9608;49.288;8.130;2023-12-07T16:29:30;3.90;99.90
18950;DHT22;9608;49.288;8.130;2023-12-07T16:31:57;3.90;99.90
18950;DHT22;9608;49.288;8.130;2023-12-07T16:34:24;3.80;99.90
18950;DHT22;9608;49.288;8.130;2023-12-07T16:36:51;3.80;99.90
18950;DHT22;9608;49.288;8.130;2023-12-07T16:39:17;3.90;99.90
18950;DHT22;9608;49.288;8.130;2023-12-07T16:41:44;3.90;99.90
18950;DHT22;9608;49.288;8.130;2023-12-07T16:44:12;3.90;99.90
18950;DHT22;9608;49.288;8.130;2023-12-07T16:46:39;3.80;99.90
18950;DHT22;9608;49.288;8.130;2023-12-07T16:49:08;3.90;99.90
18950;DHT22;9608;49.288;8.130;2023-12-07T16:51:35;4.00;99.90
18950;DHT22;9608;49.288;8.130;2023-12-07T16:54:02;4.00;99.90
18950;DHT22;9608;49.288;8.130;2023-12-07T16:56:29;4.10;99.90
18950;DHT22;9608;49.288;8.130;2023-12-07T16:58:56;4.00;99.90
18950;DHT22;9608;49.288;8.130;2023-12-07T17:01:24;4.10;99.90
18950;DHT22;9608;49.288;8.130;2023-12-07T17:03:51;4.10;99.90
18950;DHT22;9608;49.288;8.130;2023-12-07T17:06:18;4.10;99.90
18950;DHT22;9608;49.288;8.130;2023-12-07T17:08:45;4.10;99.90
18950;DHT22;9608;49.288;8.130;2023-12-07T17:11:12;4.10;99.90
18950;DHT22;9608;49.288;8.130;2023-12-07T17:13:39;4.10;99.90
18950;DHT22;9608;49.288;8.130;2023-12-07T17:16:06;4.10;99.90
18950;DHT22;9608;49.288;8.130;2023-12-07T17:18:36;4.10;99.90
18950;DHT22;9608;49.288;8.130;2023-12-07T17:21:03;4.20;99.90
18950;DHT22;9608;49.288;8.130;2023-12-07T17:23:30;4.20;99.90
18950;DHT22;9608;49.288;8.130;2023-12-07T17:25:56;4.00;99.90
18950;DHT22;9608;49.288;8.130;2023-12-07T17:28:23;4.10;99.90
18950;DHT22;9608;49.288;8.130;2023-12-07T17:30:50;4.10;99.90
18950;DHT22;9608;49.288;8.130;2023-12-07T17:33:16;4.10;99.90
18950;DHT22;9608;49.288;8.130;2023-12-07T17:37:08;4.00;99.90
18950;DHT22;9608;49.288;8.130;2023-12-07T17:39:34;4.10;99.90